Wetterdaten: Woche 31.08.15 - 06.09.15 (KW36)
Datum Zeit Temp. A. Feuchte A. Luftdruck Regen Wind Richtung Taupunkt Windchill Windben
31.08.2015 00:00 20,5 C 77 % 1015,0 hPa 0,0 l/m 0,0 km/h N 16,4 C 20,5 C 0,0 km/h
31.08.2015 01:00 19,5 C 80 % 1014,9 hPa 0,0 l/m 0,0 km/h N 15,8 C 19,5 C 0,0 km/h
31.08.2015 02:00 18,8 C 81 % 1014,7 hPa 0,0 l/m 0,0 km/h N 15,3 C 18,8 C 1,2 km/h
31.08.2015 03:00 18,3 C 81 % 1014,4 hPa 0,0 l/m 0,0 km/h N 15,0 C 18,3 C 0,4 km/h
31.08.2015 04:00 17,9 C 81 % 1014,0 hPa 0,0 l/m 0,0 km/h N 14,5 C 17,9 C 0,4 km/h
31.08.2015 05:00 17,1 C 81 % 1013,9 hPa 0,0 l/m 0,0 km/h N 13,9 C 17,1 C 0,4 km/h
31.08.2015 06:00 16,8 C 81 % 1014,1 hPa 0,0 l/m 0,0 km/h N 13,5 C 16,8 C 0,0 km/h
31.08.2015 07:00 17,0 C 80 % 1014,5 hPa 0,0 l/m 0,0 km/h N 13,6 C 17,0 C 0,0 km/h
31.08.2015 08:00 18,9 C 79 % 1014,6 hPa 0,0 l/m 0,0 km/h N 15,2 C 18,9 C 0,0 km/h
31.08.2015 09:00 23,4 C 74 % 1014,3 hPa 0,0 l/m 0,1 km/h N 18,3 C 23,4 C 2,4 km/h
31.08.2015 10:00 28,6 C 58 % 1013,9 hPa 0,0 l/m 0,4 km/h N 19,5 C 28,6 C 5,6 km/h
31.08.2015 11:00 30,8 C 54 % 1013,3 hPa 0,0 l/m 0,6 km/h N 20,4 C 30,8 C 4,8 km/h
31.08.2015 12:00 34,0 C 38 % 1012,4 hPa 0,0 l/m 3,4 km/h N 17,2 C 34,0 C 16,1 km/h
31.08.2015 13:00 35,7 C 22 % 1012,1 hPa 0,0 l/m 5,3 km/h N 10,7 C 35,7 C 18,5 km/h
31.08.2015 14:00 35,6 C 23 % 1011,6 hPa 0,0 l/m 5,5 km/h N 11,3 C 35,6 C 19,3 km/h
31.08.2015 15:00 34,9 C 23 % 1010,9 hPa 0,0 l/m 4,7 km/h N 10,3 C 34,9 C 14,5 km/h
31.08.2015 16:00 34,3 C 23 % 1010,3 hPa 0,0 l/m 4,7 km/h N 10,3 C 34,3 C 13,7 km/h
31.08.2015 17:00 33,4 C 25 % 1009,9 hPa 0,0 l/m 4,5 km/h N 10,8 C 33,4 C 15,3 km/h
31.08.2015 18:00 32,3 C 29 % 1009,7 hPa 0,0 l/m 3,2 km/h N 11,8 C 32,3 C 14,1 km/h
31.08.2015 19:00 30,6 C 33 % 1009,5 hPa 0,0 l/m 0,9 km/h N 12,2 C 30,6 C 8,1 km/h
31.08.2015 20:00 28,2 C 40 % 1009,6 hPa 0,0 l/m 0,1 km/h N 13,2 C 28,2 C 2,0 km/h
31.08.2015 21:00 24,1 C 52 % 1009,7 hPa 0,0 l/m 0,0 km/h N 13,6 C 24,1 C 0,0 km/h
31.08.2015 22:00 21,4 C 63 % 1009,3 hPa 0,0 l/m 0,0 km/h N 13,9 C 21,4 C 0,0 km/h
31.08.2015 23:00 20,0 C 70 % 1009,3 hPa 0,0 l/m 0,0 km/h N 14,3 C 20,0 C 0,0 km/h
01.09.2015 00:00 19,3 C 73 % 1009,2 hPa 0,0 l/m 0,1 km/h N 14,3 C 19,3 C 1,2 km/h
01.09.2015 01:00 18,7 C 76 % 1009,0 hPa 0,0 l/m 0,0 km/h N 14,4 C 18,7 C 0,8 km/h
01.09.2015 02:00 17,9 C 78 % 1008,9 hPa 0,0 l/m 0,3 km/h N 14,0 C 17,9 C 2,4 km/h
01.09.2015 03:00 17,5 C 79 % 1008,9 hPa 0,0 l/m 0,1 km/h N 13,7 C 17,5 C 1,2 km/h
01.09.2015 04:00 16,7 C 80 % 1009,1 hPa 0,0 l/m 0,0 km/h N 13,2 C 16,7 C 1,2 km/h
01.09.2015 05:00 16,1 C 81 % 1009,3 hPa 0,0 l/m 0,0 km/h N 12,9 C 16,1 C 0,0 km/h
01.09.2015 06:00 15,6 C 81 % 1009,5 hPa 0,0 l/m 0,0 km/h N 12,4 C 15,6 C 0,0 km/h
01.09.2015 07:00 16,1 C 81 % 1009,7 hPa 0,0 l/m 0,0 km/h N 12,8 C 16,1 C 0,0 km/h
01.09.2015 08:00 18,3 C 81 % 1009,5 hPa 0,0 l/m 0,0 km/h N 14,9 C 18,3 C 0,0 km/h
01.09.2015 09:00 23,1 C 69 % 1009,2 hPa 0,0 l/m 0,2 km/h N 17,1 C 23,1 C 3,6 km/h
01.09.2015 10:00 27,1 C 57 % 1009,0 hPa 0,0 l/m 0,3 km/h N 17,8 C 27,1 C 4,0 km/h
01.09.2015 11:00 30,2 C 50 % 1008,8 hPa 0,0 l/m 0,4 km/h N 18,5 C 30,2 C 5,6 km/h
01.09.2015 12:00 32,6 C 43 % 1008,2 hPa 0,0 l/m 0,9 km/h N 18,3 C 32,6 C 6,8 km/h
01.09.2015 13:00 33,8 C 41 % 1007,5 hPa 0,0 l/m 0,9 km/h N 18,7 C 33,8 C 8,0 km/h
01.09.2015 14:00 34,1 C 38 % 1007,0 hPa 0,0 l/m 1,7 km/h N 17,7 C 34,1 C 11,7 km/h
01.09.2015 15:00 33,3 C 38 % 1006,5 hPa 0,0 l/m 1,0 km/h N 17,1 C 33,3 C 9,3 km/h
01.09.2015 16:00 32,3 C 41 % 1006,0 hPa 0,0 l/m 0,9 km/h N 17,1 C 32,3 C 8,4 km/h
01.09.2015 17:00 31,7 C 41 % 1005,5 hPa 0,0 l/m 1,1 km/h N 16,7 C 31,7 C 9,3 km/h
01.09.2015 18:00 31,0 C 43 % 1005,1 hPa 0,0 l/m 0,4 km/h N 16,8 C 31,0 C 6,4 km/h
01.09.2015 19:00 29,6 C 48 % 1005,0 hPa 0,0 l/m 0,0 km/h N 17,4 C 29,6 C 0,8 km/h
01.09.2015 20:00 26,1 C 57 % 1005,1 hPa 0,0 l/m 0,0 km/h N 16,9 C 26,1 C 0,4 km/h
01.09.2015 21:00 24,0 C 64 % 1005,1 hPa 0,0 l/m 0,0 km/h N 16,7 C 24,0 C 0,8 km/h
01.09.2015 22:00 23,4 C 66 % 1005,2 hPa 0,0 l/m 1,9 km/h N 16,6 C 23,3 C 9,6 km/h
01.09.2015 23:00 26,0 C 52 % 1006,3 hPa 0,0 l/m 9,4 km/h N 15,2 C 25,4 C 42,3 km/h
02.09.2015 00:00 24,7 C 56 % 1007,4 hPa 0,0 l/m 15,7 km/h N 15,2 C 22,8 C 41,8 km/h
02.09.2015 01:00 23,6 C 59 % 1008,1 hPa 0,0 l/m 15,5 km/h N 15,1 C 21,6 C 42,3 km/h
02.09.2015 02:00 22,9 C 64 % 1008,8 hPa 0,0 l/m 18,4 km/h N 15,7 C 20,1 C 42,3 km/h
02.09.2015 03:00 22,2 C 66 % 1009,8 hPa 0,0 l/m 13,2 km/h N 15,6 C 20,4 C 33,8 km/h
02.09.2015 04:00 21,4 C 69 % 1010,5 hPa 0,0 l/m 10,6 km/h N 15,5 C 20,0 C 27,3 km/h
02.09.2015 05:00 20,7 C 72 % 1010,7 hPa 0,0 l/m 9,1 km/h N 15,5 C 19,8 C 27,0 km/h
02.09.2015 06:00 20,4 C 74 % 1011,7 hPa 0,0 l/m 7,7 km/h N 15,5 C 19,9 C 22,9 km/h
02.09.2015 07:00 19,6 C 76 % 1013,0 hPa 0,0 l/m 8,3 km/h N 15,2 C 18,8 C 23,3 km/h
02.09.2015 08:00 17,4 C 77 % 1014,6 hPa 0,0 l/m 11,0 km/h N 13,3 C 15,4 C 28,2 km/h
02.09.2015 09:00 17,0 C 80 % 1015,0 hPa 0,0 l/m 6,6 km/h N 13,5 C 16,8 C 17,3 km/h
02.09.2015 10:00 18,4 C 76 % 1015,2 hPa 0,0 l/m 9,6 km/h N 14,1 C 17,1 C 22,1 km/h
02.09.2015 11:00 20,5 C 66 % 1015,1 hPa 0,0 l/m 9,1 km/h N 14,0 C 19,5 C 22,5 km/h
02.09.2015 12:00 20,9 C 64 % 1014,8 hPa 0,0 l/m 8,4 km/h N 13,7 C 20,2 C 22,9 km/h
02.09.2015 13:00 21,0 C 61 % 1014,5 hPa 0,0 l/m 7,4 km/h N 13,2 C 20,6 C 20,1 km/h
02.09.2015 14:00 21,5 C 60 % 1013,9 hPa 0,0 l/m 6,2 km/h N 13,3 C 21,5 C 16,5 km/h
02.09.2015 15:00 22,3 C 57 % 1013,2 hPa 0,0 l/m 4,8 km/h N 13,4 C 22,3 C 14,9 km/h
02.09.2015 16:00 22,1 C 57 % 1013,0 hPa 0,0 l/m 5,1 km/h N 13,3 C 22,1 C 17,3 km/h
02.09.2015 17:00 21,4 C 58 % 1013,3 hPa 0,0 l/m 3,2 km/h N 12,8 C 21,4 C 10,1 km/h
02.09.2015 18:00 20,4 C 67 % 1014,0 hPa 0,8 l/m 0,6 km/h N 13,9 C 20,4 C 4,4 km/h
02.09.2015 19:00 18,1 C 79 % 1013,6 hPa 1,3 l/m 0,6 km/h N 14,4 C 18,1 C 5,6 km/h
02.09.2015 20:00 17,0 C 81 % 1014,3 hPa 0,3 l/m 0,0 km/h N 13,7 C 17,0 C 0,0 km/h
02.09.2015 21:00 16,4 C 81 % 1014,6 hPa 0,0 l/m 1,0 km/h N 13,1 C 16,4 C 4,8 km/h
02.09.2015 22:00 16,6 C 81 % 1014,8 hPa 0,3 l/m 1,8 km/h N 13,3 C 16,6 C 8,0 km/h
02.09.2015 23:00 16,4 C 81 % 1014,9 hPa 0,0 l/m 3,2 km/h N 13,2 C 16,4 C 13,3 km/h
03.09.2015 00:00 16,5 C 81 % 1015,2 hPa 0,0 l/m 2,7 km/h N 13,2 C 16,5 C 11,7 km/h
03.09.2015 01:00 16,0 C 81 % 1015,1 hPa 0,0 l/m 2,4 km/h N 12,8 C 16,0 C 10,4 km/h
03.09.2015 02:00 15,4 C 81 % 1015,1 hPa 0,0 l/m 0,8 km/h N 12,2 C 15,4 C 7,6 km/h
03.09.2015 03:00 14,8 C 80 % 1014,9 hPa 0,0 l/m 0,0 km/h N 11,4 C 14,8 C 1,2 km/h
03.09.2015 04:00 13,8 C 81 % 1014,7 hPa 0,0 l/m 0,0 km/h N 10,7 C 13,8 C 1,2 km/h
03.09.2015 05:00 13,8 C 82 % 1014,8 hPa 0,0 l/m 0,5 km/h N 10,8 C 13,8 C 5,6 km/h
03.09.2015 06:00 13,9 C 82 % 1014,6 hPa 0,0 l/m 0,2 km/h N 10,9 C 13,9 C 2,4 km/h
03.09.2015 07:00 14,1 C 82 % 1014,9 hPa 0,8 l/m 0,2 km/h N 11,1 C 14,1 C 1,2 km/h
03.09.2015 08:00 14,7 C 81 % 1015,0 hPa 1,6 l/m 0,2 km/h N 11,5 C 14,7 C 2,4 km/h
03.09.2015 09:00 15,9 C 81 % 1014,9 hPa 0,0 l/m 0,5 km/h N 12,6 C 15,9 C 2,8 km/h
03.09.2015 10:00 17,9 C 77 % 1014,3 hPa 0,0 l/m 0,5 km/h N 13,7 C 17,9 C 5,2 km/h
03.09.2015 11:00 19,5 C 71 % 1013,9 hPa 0,0 l/m 0,8 km/h N 14,0 C 19,5 C 6,4 km/h
03.09.2015 12:00 20,8 C 66 % 1013,5 hPa 0,0 l/m 0,5 km/h N 14,2 C 20,8 C 4,4 km/h
03.09.2015 13:00 21,5 C 63 % 1013,0 hPa 0,0 l/m 0,7 km/h N 14,0 C 21,5 C 6,4 km/h
03.09.2015 14:00 21,6 C 64 % 1012,5 hPa 0,0 l/m 0,6 km/h N 14,3 C 21,6 C 5,6 km/h
03.09.2015 15:00 22,1 C 65 % 1011,8 hPa 0,0 l/m 1,0 km/h N 15,2 C 22,1 C 7,6 km/h
03.09.2015 16:00 22,2 C 66 % 1011,0 hPa 0,0 l/m 0,7 km/h N 15,6 C 22,2 C 5,2 km/h
03.09.2015 17:00 22,6 C 65 % 1010,5 hPa 0,0 l/m 0,4 km/h N 15,6 C 22,6 C 4,4 km/h
03.09.2015 18:00 22,4 C 67 % 1010,0 hPa 0,0 l/m 0,1 km/h N 15,9 C 22,4 C 2,8 km/h
03.09.2015 19:00 21,5 C 69 % 1010,0 hPa 0,0 l/m 0,2 km/h N 15,4 C 21,5 C 3,6 km/h
03.09.2015 20:00 20,1 C 72 % 1010,0 hPa 0,0 l/m 0,0 km/h N 15,0 C 20,1 C 0,4 km/h
03.09.2015 21:00 19,2 C 76 % 1010,3 hPa 0,0 l/m 0,0 km/h N 14,9 C 19,2 C 0,8 km/h
03.09.2015 22:00 18,6 C 78 % 1010,6 hPa 0,0 l/m 5,7 km/h N 14,6 C 18,0 C 17,7 km/h
03.09.2015 23:00 17,4 C 80 % 1010,9 hPa 0,0 l/m 5,6 km/h N 14,0 C 17,4 C 16,9 km/h
04.09.2015 00:00 16,6 C 81 % 1011,3 hPa 4,9 l/m 4,9 km/h N 13,3 C 16,6 C 17,3 km/h
04.09.2015 01:00 15,8 C 81 % 1012,3 hPa 0,5 l/m 5,6 km/h N 12,5 C 15,8 C 18,9 km/h
04.09.2015 02:00 15,5 C 81 % 1012,1 hPa 0,3 l/m 6,8 km/h N 12,3 C 15,2 C 19,7 km/h
04.09.2015 03:00 15,4 C 81 % 1012,3 hPa 0,0 l/m 7,9 km/h N 12,2 C 14,7 C 20,1 km/h
04.09.2015 04:00 15,6 C 79 % 1012,6 hPa 0,0 l/m 8,9 km/h N 12,0 C 14,3 C 23,3 km/h
04.09.2015 05:00 15,6 C 79 % 1012,8 hPa 0,0 l/m 11,3 km/h N 12,0 C 13,3 C 26,1 km/h
04.09.2015 06:00 15,7 C 78 % 1013,2 hPa 0,0 l/m 11,6 km/h N 11,8 C 13,2 C 29,0 km/h
04.09.2015 07:00 15,6 C 77 % 1013,9 hPa 0,0 l/m 7,5 km/h N 11,6 C 15,1 C 20,9 km/h
04.09.2015 08:00 16,1 C 74 % 1014,2 hPa 0,0 l/m 9,6 km/h N 11,5 C 14,6 C 23,3 km/h
04.09.2015 09:00 17,3 C 70 % 1014,6 hPa 0,0 l/m 8,8 km/h N 11,6 C 16,1 C 23,3 km/h
04.09.2015 10:00 18,6 C 66 % 1015,1 hPa 0,0 l/m 8,5 km/h N 12,0 C 17,7 C 22,5 km/h
04.09.2015 11:00 20,0 C 62 % 1015,2 hPa 0,0 l/m 10,1 km/h N 12,3 C 18,6 C 23,3 km/h
04.09.2015 12:00 21,0 C 56 % 1014,8 hPa 0,0 l/m 8,1 km/h N 11,8 C 20,3 C 21,7 km/h
04.09.2015 13:00 21,3 C 55 % 1014,9 hPa 0,0 l/m 5,6 km/h N 11,8 C 21,2 C 18,5 km/h
04.09.2015 14:00 21,8 C 52 % 1014,7 hPa 0,0 l/m 3,3 km/h N 11,5 C 21,8 C 15,3 km/h
04.09.2015 15:00 21,8 C 54 % 1014,3 hPa 0,0 l/m 3,7 km/h N 12,1 C 21,8 C 11,7 km/h
04.09.2015 16:00 21,5 C 55 % 1013,9 hPa 0,0 l/m 0,3 km/h N 12,2 C 21,5 C 3,2 km/h
04.09.2015 17:00 21,7 C 54 % 1013,6 hPa 0,0 l/m 0,1 km/h N 12,0 C 21,7 C 1,2 km/h
04.09.2015 18:00 21,2 C 54 % 1013,5 hPa 0,0 l/m 0,1 km/h N 11,5 C 21,2 C 2,4 km/h
04.09.2015 19:00 19,9 C 63 % 1013,4 hPa 0,0 l/m 0,0 km/h N 12,6 C 19,9 C 0,0 km/h
04.09.2015 20:00 18,1 C 69 % 1013,3 hPa 0,0 l/m 0,0 km/h N 12,4 C 18,1 C 0,0 km/h
04.09.2015 21:00 17,1 C 75 % 1013,6 hPa 0,0 l/m 0,0 km/h N 12,6 C 17,1 C 0,0 km/h
04.09.2015 22:00 16,9 C 77 % 1013,6 hPa 0,8 l/m 0,2 km/h N 12,8 C 16,9 C 2,4 km/h
04.09.2015 23:00 16,0 C 80 % 1013,2 hPa 0,0 l/m 0,0 km/h N 12,6 C 16,0 C 0,0 km/h
05.09.2015 00:00 15,5 C 81 % 1013,1 hPa 0,0 l/m 0,0 km/h N 12,2 C 15,5 C 0,0 km/h
05.09.2015 01:00 15,2 C 81 % 1012,9 hPa 0,0 l/m 0,0 km/h N 12,0 C 15,2 C 0,0 km/h
05.09.2015 02:00 15,2 C 81 % 1012,8 hPa 0,0 l/m 0,0 km/h N 11,9 C 15,2 C 0,0 km/h
05.09.2015 03:00 15,1 C 81 % 1012,7 hPa 0,3 l/m 0,0 km/h N 11,9 C 15,1 C 0,0 km/h
05.09.2015 04:00 15,0 C 81 % 1012,6 hPa 0,5 l/m 0,2 km/h N 11,8 C 15,0 C 2,8 km/h
05.09.2015 05:00 14,9 C 81 % 1012,6 hPa 0,3 l/m 0,0 km/h N 11,7 C 14,9 C 0,0 km/h
05.09.2015 06:00 15,1 C 81 % 1012,4 hPa 0,3 l/m 0,0 km/h N 11,8 C 15,1 C 0,0 km/h
05.09.2015 07:00 15,1 C 80 % 1012,8 hPa 0,0 l/m 0,0 km/h N 11,8 C 15,1 C 0,0 km/h
05.09.2015 08:00 15,5 C 80 % 1012,6 hPa 0,0 l/m 0,0 km/h N 12,1 C 15,5 C 0,0 km/h
05.09.2015 09:00 16,4 C 81 % 1012,8 hPa 0,0 l/m 1,9 km/h N 13,1 C 16,4 C 8,1 km/h
05.09.2015 10:00 16,9 C 80 % 1013,1 hPa 0,0 l/m 4,1 km/h N 13,4 C 16,9 C 12,1 km/h
05.09.2015 11:00 16,9 C 79 % 1013,2 hPa 0,0 l/m 3,5 km/h N 13,2 C 16,9 C 11,3 km/h
05.09.2015 12:00 16,8 C 78 % 1012,8 hPa 0,0 l/m 2,3 km/h N 12,8 C 16,8 C 12,5 km/h
05.09.2015 13:00 16,8 C 79 % 1012,7 hPa 0,0 l/m 1,3 km/h N 13,1 C 16,8 C 12,9 km/h
05.09.2015 14:00 16,9 C 77 % 1012,5 hPa 0,0 l/m 3,8 km/h N 12,9 C 16,9 C 18,5 km/h
05.09.2015 15:00 16,0 C 77 % 1012,8 hPa 0,0 l/m 7,0 km/h N 11,9 C 15,7 C 23,3 km/h
05.09.2015 16:00 15,0 C 76 % 1012,8 hPa 0,0 l/m 5,7 km/h N 10,8 C 15,0 C 24,9 km/h
05.09.2015 17:00 14,6 C 75 % 1012,9 hPa 0,0 l/m 9,0 km/h N 10,2 C 13,2 C 26,6 km/h
05.09.2015 18:00 13,8 C 78 % 1013,2 hPa 0,3 l/m 9,0 km/h N 10,0 C 12,4 C 25,8 km/h
05.09.2015 19:00 13,8 C 76 % 1013,0 hPa 0,0 l/m 11,4 km/h N 9,7 C 11,2 C 30,2 km/h
05.09.2015 20:00 14,0 C 73 % 1013,3 hPa 0,0 l/m 9,0 km/h N 9,2 C 12,5 C 27,0 km/h
05.09.2015 21:00 14,3 C 69 % 1013,5 hPa 0,0 l/m 10,0 km/h N 8,6 C 12,3 C 30,2 km/h
05.09.2015 22:00 14,4 C 67 % 1013,4 hPa 0,0 l/m 10,2 km/h N 8,4 C 12,4 C 26,2 km/h
05.09.2015 23:00 14,8 C 65 % 1013,4 hPa 0,0 l/m 11,4 km/h N 8,1 C 12,3 C 30,6 km/h
06.09.2015 00:00 15,1 C 63 % 1013,4 hPa 0,0 l/m 12,1 km/h N 8,0 C 12,4 C 31,4 km/h
06.09.2015 01:00 14,9 C 64 % 1013,7 hPa 0,0 l/m 9,7 km/h N 8,2 C 13,2 C 31,8 km/h
06.09.2015 02:00 14,8 C 66 % 1013,7 hPa 0,0 l/m 7,8 km/h N 8,5 C 14,1 C 22,5 km/h
06.09.2015 03:00 14,6 C 68 % 1013,6 hPa 0,0 l/m 8,5 km/h N 8,8 C 13,5 C 26,1 km/h
06.09.2015 04:00 14,6 C 69 % 1013,8 hPa 0,0 l/m 11,6 km/h N 9,0 C 12,1 C 30,6 km/h
06.09.2015 05:00 14,4 C 69 % 1013,9 hPa 0,0 l/m 13,0 km/h N 8,8 C 11,3 C 35,0 km/h
06.09.2015 06:00 14,1 C 70 % 1014,1 hPa 0,0 l/m 9,6 km/h N 8,8 C 12,4 C 27,0 km/h
06.09.2015 07:00 14,3 C 69 % 1014,6 hPa 0,0 l/m 10,4 km/h N 8,7 C 12,2 C 28,2 km/h
06.09.2015 08:00 13,9 C 71 % 1015,6 hPa 0,5 l/m 13,8 km/h N 8,7 C 10,3 C 30,6 km/h
06.09.2015 09:00 11,6 C 80 % 1016,6 hPa 1,0 l/m 6,3 km/h N 8,3 C 11,2 C 20,5 km/h
06.09.2015 10:00 11,7 C 80 % 1017,1 hPa 0,0 l/m 2,3 km/h N 8,4 C 11,7 C 9,6 km/h
06.09.2015 11:00 14,3 C 73 % 1017,2 hPa 0,0 l/m 6,0 km/h N 9,5 C 13,8 C 19,8 km/h
06.09.2015 12:00 15,4 C 65 % 1017,2 hPa 0,0 l/m 9,0 km/h N 8,8 C 14,1 C 29,0 km/h
06.09.2015 13:00 15,5 C 61 % 1017,6 hPa 0,0 l/m 10,3 km/h N 8,0 C 13,7 C 36,6 km/h
06.09.2015 14:00 15,8 C 57 % 1017,8 hPa 0,0 l/m 9,4 km/h N 7,3 C 14,4 C 32,6 km/h
06.09.2015 15:00 16,1 C 53 % 1017,7 hPa 0,0 l/m 15,3 km/h N 6,4 C 12,4 C 38,6 km/h
06.09.2015 16:00 16,1 C 53 % 1018,0 hPa 0,0 l/m 13,9 km/h N 6,5 C 12,9 C 34,2 km/h
06.09.2015 17:00 15,9 C 53 % 1018,1 hPa 0,0 l/m 17,0 km/h N 6,2 C 11,7 C 40,2 km/h
06.09.2015 18:00 15,3 C 55 % 1018,3 hPa 0,0 l/m 16,5 km/h N 6,2 C 11,1 C 39,8 km/h
06.09.2015 19:00 14,9 C 56 % 1018,5 hPa 0,0 l/m 18,1 km/h N 6,2 C 10,1 C 40,6 km/h
06.09.2015 20:00 14,5 C 58 % 1019,5 hPa 0,0 l/m 16,6 km/h N 6,3 C 10,1 C 36,6 km/h
06.09.2015 21:00 14,4 C 58 % 1020,2 hPa 0,0 l/m 14,1 km/h N 6,2 C 10,8 C 32,6 km/h
06.09.2015 22:00 14,2 C 59 % 1020,1 hPa 0,0 l/m 14,2 km/h N 6,2 C 10,5 C 35,4 km/h
06.09.2015 23:00 14,1 C 59 % 1020,0 hPa 0,0 l/m 16,9 km/h N 6,1 C 9,5 C 37,8 km/h
Min-Datum _ 06.09.15 31.08.15 01.09.15 - 31.08.15 - 06.09.15 06.09.15 31.08.15
_ Min-Zeit 09:45 13:30 22:00 - 00:00 - 19:00 23:15 00:00
Minimum _ 11,1 C 21 % 1004,8 hPa - 0,0 km/h - 5,9 C 9,4 C 0,0 km/h
Max-Datum _ 31.08.15 03.09.15 06.09.15 04.09.15 06.09.15 - 31.08.15 31.08.15 01.09.15
_ Max-Zeit 13:30 04:45 21:45 00:30 17:45 - 11:45 13:30 23:15
Maximum _ 35,9 C 82 % 1020,4 hPa 4,9 l/m 21,1 km/h
N
- 20,9 C 35,9 C 51,5 km/h
N
Durchschnitt _ 19,5 C 67 % 1012,7 hPa #14,6 l/m 4,5 km/h N 12,7 C 18,9 C 13,7 km/h